Charity, Virginia
Current Conditions -  °F | °C
As of 1:55 AM on Sunday 26 Oct 2014 (Local Time) from KMTV Reporting Station
Clear Clear  
Wind Chill: 64°   Ceiling: Unl
Heat Index: 64°   Visibility: 10mi
Dew Point: 50°   Wind: 6mph
Humidity: 59%   Direction: 270°W
Pressure: 29.89"   Gusts: NA
Location:  36.9002°N, 80.0779°W
Report Text: KMTV 260555Z AUTO 27005KT 10SM CLR 18/10 A2989 RMK AO2 T01800100 10180 20111 402431002
Loading
Personal Weather Stations






























Interactive Weather Map
Tropical Storm Tracking
New forecast layout! Learn more

10-Day Weather Forecast

Advertisements
Track Severe Weather on mobile